Accueil
METAR-TAF:

METAR-TAF

Aéroports :

Yeovilton, Angleterre

latitude: 51-00N, longitude: 002-38W, altitude: 23 m

Observation

Le bulletin a été fait il y a 1 heure et 20 minutes, à 07:50 UTC
Vent 11 kt de ouest
Température 15°C
Humidité 82%
Pression 1018 hPa
Visibilité 10 km ou plus

METAR: EGDY 190750Z AUTO 26011KT 9999 FEW023/// 15/12 Q1018

Heure: 10:10 (09:10 UTC)

Prévision

Le bulletin a été fait il y a 25 heures et 54 minutes, à 07:16 UTC
Prévision valable du 18 à 09 UTC au 18 à 18 UTC
Vent 10 kt de ouest/sud-ouest avec des rafales jusqu'à 20 kt
Visibilité 10 km ou plus
Quelques nuages à une hauteur de 2200 ft
Nuages épars à une hauteur de 3000 ft
Probabilité 40% :
Temporairement
du 18 à 10 UTC au 18 à 18 UTC
Visibilité: 7000 m
Nuages épars à une hauteur de 1500 ft
faibles averses de pluie

TAF: EGDY 180716Z 1809/1818 25010G20KT 9999 FEW022 SCT030 PROB40 TEMPO 1810/1818 7000 -SHRA SCT015

Observations et prévisions météorologiques de plus de 4000 aéroports (messages METAR et TAF).

Les stations disponibles sont représentées par des disques jaunes et rouges sur la carte.

Passer la souris dessus pour voir le nom de la station.

Cliquer dessus pour voir les observations et prévisions météorologiques.

Pour changer de carte: cliquez sur les boutons verts avec une croix noire pour zoomer, sur le bouton vert avec un tiret pour effectuer un zoom arrière, ou sur les flèches vertes pour les cartes adjacentes.


METAR-TAF: